sensor_id;sensor_type;location;lat;lon;timestamp;P1;durP1;ratioP1;P2;durP2;ratioP2
71715;SDS011;59568;52.128;5.434;2023-04-08T00:01:16;27.45;;;8.32;;
71715;SDS011;59568;52.128;5.434;2023-04-08T00:03:43;19.80;;;7.70;;
71715;SDS011;59568;52.128;5.434;2023-04-08T00:06:10;45.20;;;9.32;;
71715;SDS011;59568;52.128;5.434;2023-04-08T00:08:37;24.07;;;7.63;;
71715;SDS011;59568;52.128;5.434;2023-04-08T00:11:04;30.25;;;8.20;;
71715;SDS011;59568;52.128;5.434;2023-04-08T00:13:31;44.90;;;9.00;;
71715;SDS011;59568;52.128;5.434;2023-04-08T00:15:58;45.05;;;8.45;;
71715;SDS011;59568;52.128;5.434;2023-04-08T00:18:25;28.20;;;7.80;;
71715;SDS011;59568;52.128;5.434;2023-04-08T00:20:52;42.90;;;8.43;;
71715;SDS011;59568;52.128;5.434;2023-04-08T00:23:19;27.30;;;8.25;;
71715;SDS011;59568;52.128;5.434;2023-04-08T00:25:46;44.28;;;8.38;;
71715;SDS011;59568;52.128;5.434;2023-04-08T00:28:13;35.05;;;8.48;;
71715;SDS011;59568;52.128;5.434;2023-04-08T00:30:40;29.70;;;7.40;;
71715;SDS011;59568;52.128;5.434;2023-04-08T00:33:07;39.80;;;8.23;;
71715;SDS011;59568;52.128;5.434;2023-04-08T00:35:34;63.53;;;9.30;;
71715;SDS011;59568;52.128;5.434;2023-04-08T00:38:01;39.03;;;7.90;;
71715;SDS011;59568;52.128;5.434;2023-04-08T00:40:28;35.65;;;7.22;;
71715;SDS011;59568;52.128;5.434;2023-04-08T00:42:56;36.10;;;7.50;;
71715;SDS011;59568;52.128;5.434;2023-04-08T00:45:23;47.23;;;8.07;;
71715;SDS011;59568;52.128;5.434;2023-04-08T00:47:50;76.00;;;8.38;;
71715;SDS011;59568;52.128;5.434;2023-04-08T00:50:18;43.85;;;7.68;;
71715;SDS011;59568;52.128;5.434;2023-04-08T00:52:45;78.80;;;8.73;;
71715;SDS011;59568;52.128;5.434;2023-04-08T00:55:12;39.80;;;8.30;;
71715;SDS011;59568;52.128;5.434;2023-04-08T00:57:39;42.33;;;7.33;;
71715;SDS011;59568;52.128;5.434;2023-04-08T01:00:07;41.00;;;6.80;;
71715;SDS011;59568;52.128;5.434;2023-04-08T01:02:40;44.53;;;7.53;;
71715;SDS011;59568;52.128;5.434;2023-04-08T01:08:05;90.03;;;8.02;;
71715;SDS011;59568;52.128;5.434;2023-04-08T01:10:35;67.10;;;7.93;;
71715;SDS011;59568;52.128;5.434;2023-04-08T01:13:04;111.22;;;9.18;;
71715;SDS011;59568;52.128;5.434;2023-04-08T01:15:35;124.25;;;9.95;;
71715;SDS011;59568;52.128;5.434;2023-04-08T01:18:08;97.88;;;7.68;;
71715;SDS011;59568;52.128;5.434;2023-04-08T01:20:38;80.32;;;8.35;;
71715;SDS011;59568;52.128;5.434;2023-04-08T01:25:49;53.78;;;6.35;;
71715;SDS011;59568;52.128;5.434;2023-04-08T01:28:18;89.75;;;7.80;;
71715;SDS011;59568;52.128;5.434;2023-04-08T01:30:47;97.13;;;8.38;;
71715;SDS011;59568;52.128;5.434;2023-04-08T01:33:15;35.65;;;6.53;;
71715;SDS011;59568;52.128;5.434;2023-04-08T01:35:44;55.43;;;6.73;;
71715;SDS011;59568;52.128;5.434;2023-04-08T01:38:13;44.10;;;6.53;;
71715;SDS011;59568;52.128;5.434;2023-04-08T01:40:41;48.20;;;7.65;;
71715;SDS011;59568;52.128;5.434;2023-04-08T01:43:10;59.80;;;7.60;;
71715;SDS011;59568;52.128;5.434;2023-04-08T01:45:40;49.72;;;6.43;;
71715;SDS011;59568;52.128;5.434;2023-04-08T01:48:09;60.07;;;6.77;;
71715;SDS011;59568;52.128;5.434;2023-04-08T01:50:39;35.17;;;6.80;;
71715;SDS011;59568;52.128;5.434;2023-04-08T01:53:09;29.27;;;5.97;;
71715;SDS011;59568;52.128;5.434;2023-04-08T01:55:36;48.13;;;5.93;;
71715;SDS011;59568;52.128;5.434;2023-04-08T01:58:06;52.92;;;6.75;;
71715;SDS011;59568;52.128;5.434;2023-04-08T02:00:34;20.73;;;6.23;;
71715;SDS011;59568;52.128;5.434;2023-04-08T02:03:02;51.95;;;6.00;;
71715;SDS011;59568;52.128;5.434;2023-04-08T02:05:32;37.95;;;5.72;;
71715;SDS011;59568;52.128;5.434;2023-04-08T02:07:59;47.47;;;6.30;;
71715;SDS011;59568;52.128;5.434;2023-04-08T02:10:26;23.83;;;5.63;;
71715;SDS011;59568;52.128;5.434;2023-04-08T02:12:53;68.33;;;6.87;;
71715;SDS011;59568;52.128;5.434;2023-04-08T02:15:21;28.08;;;5.40;;
71715;SDS011;59568;52.128;5.434;2023-04-08T02:17:53;33.28;;;5.50;;
71715;SDS011;59568;52.128;5.434;2023-04-08T02:20:36;57.90;;;6.82;;
71715;SDS011;59568;52.128;5.434;2023-04-08T02:23:09;45.95;;;6.00;;
71715;SDS011;59568;52.128;5.434;2023-04-08T02:25:45;65.80;;;6.33;;
71715;SDS011;59568;52.128;5.434;2023-04-08T02:28:14;35.00;;;6.20;;
71715;SDS011;59568;52.128;5.434;2023-04-08T02:30:46;50.92;;;6.20;;
71715;SDS011;59568;52.128;5.434;2023-04-08T02:33:16;56.25;;;7.25;;
71715;SDS011;59568;52.128;5.434;2023-04-08T02:35:48;53.45;;;6.68;;
71715;SDS011;59568;52.128;5.434;2023-04-08T02:38:16;28.03;;;5.83;;
71715;SDS011;59568;52.128;5.434;2023-04-08T02:40:43;47.05;;;6.05;;
71715;SDS011;59568;52.128;5.434;2023-04-08T02:43:10;40.13;;;6.30;;
71715;SDS011;59568;52.128;5.434;2023-04-08T02:45:37;24.65;;;5.93;;
71715;SDS011;59568;52.128;5.434;2023-04-08T02:48:07;29.80;;;6.90;;
71715;SDS011;59568;52.128;5.434;2023-04-08T02:50:34;29.17;;;5.70;;
71715;SDS011;59568;52.128;5.434;2023-04-08T02:53:02;36.47;;;6.68;;
71715;SDS011;59568;52.128;5.434;2023-04-08T02:55:29;35.22;;;6.30;;
71715;SDS011;59568;52.128;5.434;2023-04-08T02:57:56;27.60;;;5.78;;
71715;SDS011;59568;52.128;5.434;2023-04-08T03:00:23;30.65;;;6.38;;
71715;SDS011;59568;52.128;5.434;2023-04-08T03:02:49;46.83;;;7.70;;
71715;SDS011;59568;52.128;5.434;2023-04-08T03:05:17;25.58;;;5.45;;
71715;SDS011;59568;52.128;5.434;2023-04-08T03:07:44;33.50;;;7.70;;
71715;SDS011;59568;52.128;5.434;2023-04-08T03:10:11;49.15;;;8.27;;
71715;SDS011;59568;52.128;5.434;2023-04-08T03:12:37;27.70;;;7.45;;
71715;SDS011;59568;52.128;5.434;2023-04-08T03:15:04;15.83;;;6.73;;
71715;SDS011;59568;52.128;5.434;2023-04-08T03:17:32;28.02;;;7.03;;
71715;SDS011;59568;52.128;5.434;2023-04-08T03:20:00;46.17;;;8.40;;
71715;SDS011;59568;52.128;5.434;2023-04-08T03:22:30;45.08;;;7.75;;
71715;SDS011;59568;52.128;5.434;2023-04-08T03:24:57;39.60;;;7.65;;
71715;SDS011;59568;52.128;5.434;2023-04-08T03:27:24;50.17;;;8.33;;
71715;SDS011;59568;52.128;5.434;2023-04-08T03:29:51;51.22;;;9.00;;
71715;SDS011;59568;52.128;5.434;2023-04-08T03:32:18;17.63;;;7.88;;
71715;SDS011;59568;52.128;5.434;2023-04-08T03:34:45;65.15;;;9.68;;
71715;SDS011;59568;52.128;5.434;2023-04-08T03:37:12;26.25;;;8.45;;
71715;SDS011;59568;52.128;5.434;2023-04-08T03:39:39;45.03;;;9.17;;
71715;SDS011;59568;52.128;5.434;2023-04-08T03:42:06;49.33;;;9.77;;
71715;SDS011;59568;52.128;5.434;2023-04-08T03:44:32;39.47;;;10.23;;
71715;SDS011;59568;52.128;5.434;2023-04-08T03:46:59;43.35;;;9.77;;
71715;SDS011;59568;52.128;5.434;2023-04-08T03:49:26;56.33;;;9.73;;
71715;SDS011;59568;52.128;5.434;2023-04-08T03:51:53;24.03;;;7.70;;
71715;SDS011;59568;52.128;5.434;2023-04-08T03:54:19;64.07;;;10.52;;
71715;SDS011;59568;52.128;5.434;2023-04-08T03:56:47;38.95;;;9.00;;
71715;SDS011;59568;52.128;5.434;2023-04-08T03:59:15;27.10;;;9.02;;
71715;SDS011;59568;52.128;5.434;2023-04-08T04:01:41;49.78;;;9.15;;
71715;SDS011;59568;52.128;5.434;2023-04-08T04:04:08;102.17;;;10.93;;
71715;SDS011;59568;52.128;5.434;2023-04-08T04:06:36;51.05;;;9.63;;
71715;SDS011;59568;52.128;5.434;2023-04-08T04:09:03;37.55;;;9.32;;
71715;SDS011;59568;52.128;5.434;2023-04-08T04:11:29;59.30;;;8.90;;
71715;SDS011;59568;52.128;5.434;2023-04-08T04:13:56;78.22;;;9.43;;
71715;SDS011;59568;52.128;5.434;2023-04-08T04:16:23;46.77;;;8.57;;
71715;SDS011;59568;52.128;5.434;2023-04-08T04:18:51;31.40;;;8.43;;
71715;SDS011;59568;52.128;5.434;2023-04-08T04:21:19;30.73;;;8.23;;
71715;SDS011;59568;52.128;5.434;2023-04-08T04:23:46;28.83;;;7.68;;
71715;SDS011;59568;52.128;5.434;2023-04-08T04:26:13;20.70;;;7.45;;
71715;SDS011;59568;52.128;5.434;2023-04-08T04:28:40;19.87;;;8.07;;
71715;SDS011;59568;52.128;5.434;2023-04-08T04:31:07;15.38;;;7.90;;
71715;SDS011;59568;52.128;5.434;2023-04-08T04:33:34;16.27;;;8.35;;
71715;SDS011;59568;52.128;5.434;2023-04-08T04:36:01;15.32;;;8.13;;
71715;SDS011;59568;52.128;5.434;2023-04-08T04:38:28;16.60;;;8.30;;
71715;SDS011;59568;52.128;5.434;2023-04-08T04:40:54;16.00;;;8.30;;
71715;SDS011;59568;52.128;5.434;2023-04-08T04:43:21;14.88;;;8.15;;
71715;SDS011;59568;52.128;5.434;2023-04-08T04:45:48;13.13;;;7.32;;
71715;SDS011;59568;52.128;5.434;2023-04-08T04:48:15;12.40;;;7.75;;
71715;SDS011;59568;52.128;5.434;2023-04-08T04:50:42;16.27;;;8.48;;
71715;SDS011;59568;52.128;5.434;2023-04-08T04:53:09;13.17;;;7.60;;
71715;SDS011;59568;52.128;5.434;2023-04-08T04:55:35;17.83;;;8.55;;
71715;SDS011;59568;52.128;5.434;2023-04-08T04:58:04;22.65;;;8.48;;
71715;SDS011;59568;52.128;5.434;2023-04-08T05:00:31;17.42;;;8.57;;
71715;SDS011;59568;52.128;5.434;2023-04-08T05:02:58;13.43;;;7.80;;
71715;SDS011;59568;52.128;5.434;2023-04-08T05:05:25;17.40;;;8.70;;
71715;SDS011;59568;52.128;5.434;2023-04-08T05:07:52;17.08;;;7.88;;
71715;SDS011;59568;52.128;5.434;2023-04-08T05:10:19;16.98;;;8.00;;
71715;SDS011;59568;52.128;5.434;2023-04-08T05:12:46;13.25;;;8.00;;
71715;SDS011;59568;52.128;5.434;2023-04-08T05:15:12;14.15;;;7.95;;
71715;SDS011;59568;52.128;5.434;2023-04-08T05:17:39;12.87;;;7.87;;
71715;SDS011;59568;52.128;5.434;2023-04-08T05:20:06;24.77;;;7.90;;
71715;SDS011;59568;52.128;5.434;2023-04-08T05:22:33;25.42;;;7.70;;
71715;SDS011;59568;52.128;5.434;2023-04-08T05:25:00;18.88;;;7.07;;
71715;SDS011;59568;52.128;5.434;2023-04-08T05:27:27;23.83;;;7.10;;
71715;SDS011;59568;52.128;5.434;2023-04-08T05:29:54;13.87;;;6.83;;
71715;SDS011;59568;52.128;5.434;2023-04-08T05:32:21;19.48;;;7.15;;
71715;SDS011;59568;52.128;5.434;2023-04-08T05:34:48;13.52;;;7.20;;
71715;SDS011;59568;52.128;5.434;2023-04-08T05:37:15;11.55;;;6.93;;
71715;SDS011;59568;52.128;5.434;2023-04-08T05:39:41;14.35;;;7.43;;
71715;SDS011;59568;52.128;5.434;2023-04-08T05:42:08;11.27;;;6.73;;
71715;SDS011;59568;52.128;5.434;2023-04-08T05:44:36;12.60;;;6.82;;
71715;SDS011;59568;52.128;5.434;2023-04-08T05:47:04;12.48;;;6.70;;
71715;SDS011;59568;52.128;5.434;2023-04-08T05:49:32;12.10;;;6.88;;
71715;SDS011;59568;52.128;5.434;2023-04-08T05:51:59;11.45;;;6.88;;
71715;SDS011;59568;52.128;5.434;2023-04-08T05:54:26;9.90;;;6.10;;
71715;SDS011;59568;52.128;5.434;2023-04-08T05:56:53;10.65;;;6.25;;
71715;SDS011;59568;52.128;5.434;2023-04-08T05:59:20;11.30;;;6.57;;
71715;SDS011;59568;52.128;5.434;2023-04-08T06:01:46;12.02;;;6.80;;
71715;SDS011;59568;52.128;5.434;2023-04-08T06:04:13;11.20;;;6.38;;
71715;SDS011;59568;52.128;5.434;2023-04-08T06:06:43;9.17;;;6.17;;
71715;SDS011;59568;52.128;5.434;2023-04-08T06:09:09;12.18;;;7.43;;
71715;SDS011;59568;52.128;5.434;2023-04-08T06:11:36;11.40;;;7.80;;
71715;SDS011;59568;52.128;5.434;2023-04-08T06:14:03;10.50;;;6.45;;
71715;SDS011;59568;52.128;5.434;2023-04-08T06:16:30;11.73;;;7.35;;
71715;SDS011;59568;52.128;5.434;2023-04-08T06:18:57;10.47;;;6.50;;
71715;SDS011;59568;52.128;5.434;2023-04-08T06:21:24;9.07;;;6.32;;
71715;SDS011;59568;52.128;5.434;2023-04-08T06:23:51;10.75;;;6.10;;
71715;SDS011;59568;52.128;5.434;2023-04-08T06:26:18;7.00;;;5.45;;
71715;SDS011;59568;52.128;5.434;2023-04-08T06:28:45;8.50;;;6.35;;
71715;SDS011;59568;52.128;5.434;2023-04-08T06:31:12;10.60;;;6.83;;
71715;SDS011;59568;52.128;5.434;2023-04-08T06:33:38;9.48;;;6.10;;
71715;SDS011;59568;52.128;5.434;2023-04-08T06:36:05;8.70;;;6.45;;
71715;SDS011;59568;52.128;5.434;2023-04-08T06:38:33;9.35;;;6.85;;
71715;SDS011;59568;52.128;5.434;2023-04-08T06:41:01;8.85;;;6.32;;
71715;SDS011;59568;52.128;5.434;2023-04-08T06:43:29;10.30;;;6.43;;
71715;SDS011;59568;52.128;5.434;2023-04-08T06:45:56;9.60;;;6.15;;
71715;SDS011;59568;52.128;5.434;2023-04-08T06:48:23;8.85;;;6.03;;
71715;SDS011;59568;52.128;5.434;2023-04-08T06:50:56;9.93;;;6.50;;
71715;SDS011;59568;52.128;5.434;2023-04-08T06:53:23;10.52;;;6.63;;
71715;SDS011;59568;52.128;5.434;2023-04-08T06:55:51;7.43;;;5.90;;
71715;SDS011;59568;52.128;5.434;2023-04-08T06:58:18;8.25;;;5.85;;
71715;SDS011;59568;52.128;5.434;2023-04-08T07:00:45;8.00;;;5.95;;
71715;SDS011;59568;52.128;5.434;2023-04-08T07:03:12;10.73;;;6.85;;
71715;SDS011;59568;52.128;5.434;2023-04-08T07:05:39;9.70;;;6.10;;
71715;SDS011;59568;52.128;5.434;2023-04-08T07:08:07;10.20;;;6.13;;
71715;SDS011;59568;52.128;5.434;2023-04-08T07:10:34;9.68;;;6.60;;
71715;SDS011;59568;52.128;5.434;2023-04-08T07:13:02;8.57;;;6.55;;
71715;SDS011;59568;52.128;5.434;2023-04-08T07:15:29;9.20;;;6.60;;
71715;SDS011;59568;52.128;5.434;2023-04-08T07:17:56;9.68;;;6.30;;
71715;SDS011;59568;52.128;5.434;2023-04-08T07:20:24;8.33;;;6.20;;
71715;SDS011;59568;52.128;5.434;2023-04-08T07:22:51;9.30;;;6.32;;
71715;SDS011;59568;52.128;5.434;2023-04-08T07:25:18;9.45;;;6.72;;
71715;SDS011;59568;52.128;5.434;2023-04-08T07:27:46;7.93;;;5.78;;
71715;SDS011;59568;52.128;5.434;2023-04-08T07:30:12;8.40;;;5.90;;
71715;SDS011;59568;52.128;5.434;2023-04-08T07:32:39;8.70;;;5.43;;
71715;SDS011;59568;52.128;5.434;2023-04-08T07:35:06;8.18;;;5.75;;
71715;SDS011;59568;52.128;5.434;2023-04-08T07:37:33;8.25;;;5.47;;
71715;SDS011;59568;52.128;5.434;2023-04-08T07:40:00;7.60;;;5.65;;
71715;SDS011;59568;52.128;5.434;2023-04-08T07:42:27;9.57;;;6.00;;
71715;SDS011;59568;52.128;5.434;2023-04-08T07:44:54;9.43;;;5.97;;
71715;SDS011;59568;52.128;5.434;2023-04-08T07:47:21;10.30;;;6.00;;
71715;SDS011;59568;52.128;5.434;2023-04-08T07:49:48;8.70;;;5.68;;
71715;SDS011;59568;52.128;5.434;2023-04-08T07:52:15;8.05;;;5.57;;
71715;SDS011;59568;52.128;5.434;2023-04-08T07:54:43;9.55;;;5.68;;
71715;SDS011;59568;52.128;5.434;2023-04-08T07:57:10;7.70;;;5.23;;
71715;SDS011;59568;52.128;5.434;2023-04-08T07:59:37;10.05;;;6.13;;
71715;SDS011;59568;52.128;5.434;2023-04-08T08:02:04;7.95;;;5.93;;
71715;SDS011;59568;52.128;5.434;2023-04-08T08:04:30;9.43;;;5.60;;
71715;SDS011;59568;52.128;5.434;2023-04-08T08:06:58;10.02;;;5.85;;
71715;SDS011;59568;52.128;5.434;2023-04-08T08:09:25;9.20;;;6.10;;
71715;SDS011;59568;52.128;5.434;2023-04-08T08:11:52;8.63;;;5.80;;
71715;SDS011;59568;52.128;5.434;2023-04-08T08:14:19;9.02;;;5.82;;
71715;SDS011;59568;52.128;5.434;2023-04-08T08:16:47;7.65;;;5.53;;
71715;SDS011;59568;52.128;5.434;2023-04-08T08:19:15;8.65;;;6.05;;
71715;SDS011;59568;52.128;5.434;2023-04-08T08:21:41;8.47;;;6.43;;
71715;SDS011;59568;52.128;5.434;2023-04-08T08:24:08;9.48;;;5.72;;
71715;SDS011;59568;52.128;5.434;2023-04-08T08:26:35;9.80;;;6.57;;
71715;SDS011;59568;52.128;5.434;2023-04-08T08:29:02;9.05;;;6.00;;
71715;SDS011;59568;52.128;5.434;2023-04-08T08:31:30;9.77;;;6.38;;
71715;SDS011;59568;52.128;5.434;2023-04-08T08:33:57;9.67;;;5.80;;
71715;SDS011;59568;52.128;5.434;2023-04-08T08:36:24;10.90;;;6.57;;
71715;SDS011;59568;52.128;5.434;2023-04-08T08:38:52;9.80;;;6.80;;
71715;SDS011;59568;52.128;5.434;2023-04-08T08:41:20;10.40;;;7.18;;
71715;SDS011;59568;52.128;5.434;2023-04-08T08:43:47;10.23;;;6.97;;
71715;SDS011;59568;52.128;5.434;2023-04-08T08:46:16;10.63;;;6.53;;
71715;SDS011;59568;52.128;5.434;2023-04-08T08:48:44;12.32;;;7.35;;
71715;SDS011;59568;52.128;5.434;2023-04-08T08:51:12;9.88;;;6.22;;
71715;SDS011;59568;52.128;5.434;2023-04-08T08:53:39;8.65;;;6.18;;
71715;SDS011;59568;52.128;5.434;2023-04-08T08:56:10;10.00;;;6.80;;
71715;SDS011;59568;52.128;5.434;2023-04-08T08:58:44;8.37;;;6.10;;
71715;SDS011;59568;52.128;5.434;2023-04-08T09:04:07;10.93;;;6.28;;
71715;SDS011;59568;52.128;5.434;2023-04-08T09:06:38;8.63;;;6.22;;
71715;SDS011;59568;52.128;5.434;2023-04-08T09:09:05;9.55;;;6.70;;
71715;SDS011;59568;52.128;5.434;2023-04-08T09:11:40;8.07;;;6.13;;
71715;SDS011;59568;52.128;5.434;2023-04-08T09:14:18;9.25;;;6.38;;
71715;SDS011;59568;52.128;5.434;2023-04-08T09:16:46;10.65;;;6.03;;
71715;SDS011;59568;52.128;5.434;2023-04-08T09:19:13;9.27;;;6.65;;
71715;SDS011;59568;52.128;5.434;2023-04-08T09:21:40;10.63;;;6.82;;
71715;SDS011;59568;52.128;5.434;2023-04-08T09:24:07;9.43;;;6.47;;
71715;SDS011;59568;52.128;5.434;2023-04-08T09:26:35;9.38;;;6.20;;
71715;SDS011;59568;52.128;5.434;2023-04-08T09:29:03;10.27;;;6.13;;
71715;SDS011;59568;52.128;5.434;2023-04-08T09:31:56;11.05;;;6.50;;
71715;SDS011;59568;52.128;5.434;2023-04-08T09:34:25;11.93;;;6.93;;
71715;SDS011;59568;52.128;5.434;2023-04-08T09:36:54;10.53;;;6.27;;
71715;SDS011;59568;52.128;5.434;2023-04-08T09:39:22;10.02;;;6.75;;
71715;SDS011;59568;52.128;5.434;2023-04-08T09:41:50;9.60;;;6.75;;
71715;SDS011;59568;52.128;5.434;2023-04-08T09:44:20;10.02;;;7.28;;
71715;SDS011;59568;52.128;5.434;2023-04-08T09:46:57;9.40;;;6.70;;
71715;SDS011;59568;52.128;5.434;2023-04-08T09:49:33;11.10;;;6.37;;
71715;SDS011;59568;52.128;5.434;2023-04-08T09:52:13;8.55;;;6.38;;
71715;SDS011;59568;52.128;5.434;2023-04-08T09:57:45;10.57;;;6.43;;
71715;SDS011;59568;52.128;5.434;2023-04-08T10:00:16;11.10;;;6.60;;
71715;SDS011;59568;52.128;5.434;2023-04-08T10:03:09;9.57;;;6.43;;
71715;SDS011;59568;52.128;5.434;2023-04-08T10:05:44;9.90;;;6.60;;
71715;SDS011;59568;52.128;5.434;2023-04-08T10:08:12;9.20;;;6.85;;
71715;SDS011;59568;52.128;5.434;2023-04-08T10:10:40;7.95;;;6.25;;
71715;SDS011;59568;52.128;5.434;2023-04-08T10:13:08;9.30;;;5.78;;
71715;SDS011;59568;52.128;5.434;2023-04-08T10:15:36;9.13;;;6.17;;
71715;SDS011;59568;52.128;5.434;2023-04-08T10:23:02;8.38;;;6.45;;
71715;SDS011;59568;52.128;5.434;2023-04-08T10:25:39;8.55;;;5.78;;
71715;SDS011;59568;52.128;5.434;2023-04-08T10:33:09;8.48;;;6.22;;
71715;SDS011;59568;52.128;5.434;2023-04-08T10:35:42;7.93;;;5.63;;
71715;SDS011;59568;52.128;5.434;2023-04-08T10:38:14;8.35;;;5.75;;
71715;SDS011;59568;52.128;5.434;2023-04-08T10:40:42;9.17;;;5.73;;
71715;SDS011;59568;52.128;5.434;2023-04-08T10:43:12;8.75;;;5.97;;
71715;SDS011;59568;52.128;5.434;2023-04-08T10:45:40;8.43;;;5.78;;
71715;SDS011;59568;52.128;5.434;2023-04-08T10:50:51;10.20;;;6.25;;
71715;SDS011;59568;52.128;5.434;2023-04-08T10:53:22;9.63;;;6.00;;
71715;SDS011;59568;52.128;5.434;2023-04-08T10:56:09;8.80;;;5.63;;
71715;SDS011;59568;52.128;5.434;2023-04-08T10:58:47;9.18;;;6.35;;
71715;SDS011;59568;52.128;5.434;2023-04-08T11:01:18;8.00;;;6.10;;
71715;SDS011;59568;52.128;5.434;2023-04-08T11:03:46;9.93;;;6.40;;
71715;SDS011;59568;52.128;5.434;2023-04-08T11:06:13;9.87;;;6.77;;
71715;SDS011;59568;52.128;5.434;2023-04-08T11:08:40;8.95;;;5.95;;
71715;SDS011;59568;52.128;5.434;2023-04-08T11:11:07;8.55;;;5.43;;
71715;SDS011;59568;52.128;5.434;2023-04-08T11:13:40;9.07;;;5.60;;
71715;SDS011;59568;52.128;5.434;2023-04-08T11:16:19;9.13;;;5.88;;
71715;SDS011;59568;52.128;5.434;2023-04-08T11:18:49;11.87;;;5.83;;
71715;SDS011;59568;52.128;5.434;2023-04-08T11:21:16;8.30;;;5.72;;
71715;SDS011;59568;52.128;5.434;2023-04-08T11:23:43;10.85;;;6.10;;
71715;SDS011;59568;52.128;5.434;2023-04-08T11:26:10;9.60;;;6.20;;
71715;SDS011;59568;52.128;5.434;2023-04-08T11:28:39;9.48;;;5.43;;
71715;SDS011;59568;52.128;5.434;2023-04-08T11:31:06;9.70;;;5.47;;
71715;SDS011;59568;52.128;5.434;2023-04-08T11:33:34;9.20;;;5.28;;
71715;SDS011;59568;52.128;5.434;2023-04-08T11:36:02;9.32;;;4.95;;
71715;SDS011;59568;52.128;5.434;2023-04-08T11:38:30;8.88;;;5.30;;
71715;SDS011;59568;52.128;5.434;2023-04-08T11:40:57;8.05;;;5.03;;
71715;SDS011;59568;52.128;5.434;2023-04-08T11:43:25;9.57;;;5.23;;
71715;SDS011;59568;52.128;5.434;2023-04-08T11:45:52;8.82;;;5.05;;
71715;SDS011;59568;52.128;5.434;2023-04-08T11:48:19;10.30;;;5.65;;
71715;SDS011;59568;52.128;5.434;2023-04-08T11:50:47;7.82;;;4.57;;
71715;SDS011;59568;52.128;5.434;2023-04-08T11:55:43;7.37;;;4.57;;
71715;SDS011;59568;52.128;5.434;2023-04-08T11:58:10;12.02;;;5.75;;
71715;SDS011;59568;52.128;5.434;2023-04-08T12:00:37;8.20;;;4.50;;
71715;SDS011;59568;52.128;5.434;2023-04-08T12:03:05;7.57;;;4.28;;
71715;SDS011;59568;52.128;5.434;2023-04-08T12:05:33;10.88;;;4.68;;
71715;SDS011;59568;52.128;5.434;2023-04-08T12:08:00;9.40;;;4.47;;
71715;SDS011;59568;52.128;5.434;2023-04-08T12:10:27;10.55;;;4.70;;
71715;SDS011;59568;52.128;5.434;2023-04-08T12:12:54;8.60;;;4.20;;
71715;SDS011;59568;52.128;5.434;2023-04-08T12:15:21;8.98;;;4.60;;
71715;SDS011;59568;52.128;5.434;2023-04-08T12:17:48;7.30;;;4.35;;
71715;SDS011;59568;52.128;5.434;2023-04-08T12:20:15;5.60;;;3.97;;
71715;SDS011;59568;52.128;5.434;2023-04-08T12:22:42;6.75;;;4.00;;
71715;SDS011;59568;52.128;5.434;2023-04-08T12:25:09;8.45;;;4.82;;
71715;SDS011;59568;52.128;5.434;2023-04-08T12:27:36;7.63;;;4.07;;
71715;SDS011;59568;52.128;5.434;2023-04-08T12:30:03;7.25;;;3.95;;
71715;SDS011;59568;52.128;5.434;2023-04-08T12:32:30;8.23;;;4.17;;
71715;SDS011;59568;52.128;5.434;2023-04-08T12:34:57;10.20;;;3.92;;
71715;SDS011;59568;52.128;5.434;2023-04-08T12:37:24;5.82;;;3.30;;
71715;SDS011;59568;52.128;5.434;2023-04-08T12:39:51;6.22;;;3.67;;
71715;SDS011;59568;52.128;5.434;2023-04-08T12:42:18;6.00;;;2.83;;
71715;SDS011;59568;52.128;5.434;2023-04-08T12:44:45;6.33;;;3.00;;
71715;SDS011;59568;52.128;5.434;2023-04-08T12:47:12;7.15;;;3.30;;
71715;SDS011;59568;52.128;5.434;2023-04-08T12:49:39;7.75;;;3.50;;
71715;SDS011;59568;52.128;5.434;2023-04-08T12:52:09;4.00;;;2.83;;
71715;SDS011;59568;52.128;5.434;2023-04-08T12:54:37;5.68;;;3.80;;
71715;SDS011;59568;52.128;5.434;2023-04-08T12:57:03;4.57;;;2.80;;
71715;SDS011;59568;52.128;5.434;2023-04-08T12:59:30;5.45;;;3.05;;
71715;SDS011;59568;52.128;5.434;2023-04-08T13:01:58;5.63;;;3.45;;
71715;SDS011;59568;52.128;5.434;2023-04-08T13:04:25;6.43;;;3.30;;
71715;SDS011;59568;52.128;5.434;2023-04-08T13:06:52;6.30;;;4.25;;
71715;SDS011;59568;52.128;5.434;2023-04-08T13:09:19;7.20;;;3.97;;
71715;SDS011;59568;52.128;5.434;2023-04-08T13:11:46;6.18;;;3.85;;
71715;SDS011;59568;52.128;5.434;2023-04-08T13:14:13;5.88;;;3.78;;
71715;SDS011;59568;52.128;5.434;2023-04-08T13:16:40;5.18;;;3.83;;
71715;SDS011;59568;52.128;5.434;2023-04-08T13:19:07;5.97;;;4.13;;
71715;SDS011;59568;52.128;5.434;2023-04-08T13:21:34;6.90;;;4.90;;
71715;SDS011;59568;52.128;5.434;2023-04-08T13:24:01;6.55;;;4.78;;
71715;SDS011;59568;52.128;5.434;2023-04-08T13:26:28;6.85;;;4.55;;
71715;SDS011;59568;52.128;5.434;2023-04-08T13:28:55;6.18;;;4.20;;
71715;SDS011;59568;52.128;5.434;2023-04-08T13:31:24;6.60;;;4.10;;
71715;SDS011;59568;52.128;5.434;2023-04-08T13:33:51;6.23;;;4.20;;
71715;SDS011;59568;52.128;5.434;2023-04-08T13:36:23;6.55;;;4.10;;
71715;SDS011;59568;52.128;5.434;2023-04-08T13:38:50;8.07;;;4.82;;
71715;SDS011;59568;52.128;5.434;2023-04-08T13:41:18;7.57;;;4.53;;
71715;SDS011;59568;52.128;5.434;2023-04-08T13:43:46;9.20;;;4.93;;
71715;SDS011;59568;52.128;5.434;2023-04-08T13:46:14;7.60;;;4.97;;
71715;SDS011;59568;52.128;5.434;2023-04-08T13:48:40;6.95;;;4.00;;
71715;SDS011;59568;52.128;5.434;2023-04-08T13:51:07;6.63;;;4.38;;
71715;SDS011;59568;52.128;5.434;2023-04-08T13:53:34;8.32;;;5.03;;
71715;SDS011;59568;52.128;5.434;2023-04-08T13:56:01;8.50;;;5.00;;
71715;SDS011;59568;52.128;5.434;2023-04-08T13:58:28;6.93;;;4.80;;
71715;SDS011;59568;52.128;5.434;2023-04-08T14:00:55;6.45;;;4.30;;
71715;SDS011;59568;52.128;5.434;2023-04-08T14:03:22;6.88;;;4.47;;
71715;SDS011;59568;52.128;5.434;2023-04-08T14:05:50;8.68;;;4.80;;
71715;SDS011;59568;52.128;5.434;2023-04-08T14:08:16;7.68;;;4.80;;
71715;SDS011;59568;52.128;5.434;2023-04-08T14:10:51;7.37;;;4.73;;
71715;SDS011;59568;52.128;5.434;2023-04-08T14:13:18;7.95;;;4.30;;
71715;SDS011;59568;52.128;5.434;2023-04-08T14:15:45;6.90;;;4.60;;
71715;SDS011;59568;52.128;5.434;2023-04-08T14:18:12;8.02;;;4.68;;
71715;SDS011;59568;52.128;5.434;2023-04-08T14:20:42;6.97;;;4.00;;
71715;SDS011;59568;52.128;5.434;2023-04-08T14:23:10;7.67;;;4.47;;
71715;SDS011;59568;52.128;5.434;2023-04-08T14:25:39;5.95;;;3.80;;
71715;SDS011;59568;52.128;5.434;2023-04-08T14:28:06;8.23;;;4.97;;
71715;SDS011;59568;52.128;5.434;2023-04-08T14:30:36;8.65;;;4.88;;
71715;SDS011;59568;52.128;5.434;2023-04-08T14:33:03;8.23;;;4.40;;
71715;SDS011;59568;52.128;5.434;2023-04-08T14:35:33;7.60;;;4.50;;
71715;SDS011;59568;52.128;5.434;2023-04-08T14:38:00;6.13;;;3.75;;
71715;SDS011;59568;52.128;5.434;2023-04-08T14:40:27;7.00;;;3.67;;
71715;SDS011;59568;52.128;5.434;2023-04-08T14:42:54;5.28;;;3.45;;
71715;SDS011;59568;52.128;5.434;2023-04-08T14:45:21;6.70;;;4.10;;
71715;SDS011;59568;52.128;5.434;2023-04-08T14:47:48;7.70;;;4.03;;
71715;SDS011;59568;52.128;5.434;2023-04-08T14:50:15;5.97;;;3.35;;
71715;SDS011;59568;52.128;5.434;2023-04-08T14:52:42;7.28;;;3.88;;
71715;SDS011;59568;52.128;5.434;2023-04-08T14:55:10;7.72;;;4.40;;
71715;SDS011;59568;52.128;5.434;2023-04-08T14:57:37;9.52;;;5.50;;
71715;SDS011;59568;52.128;5.434;2023-04-08T15:00:05;10.07;;;5.10;;
71715;SDS011;59568;52.128;5.434;2023-04-08T15:02:33;7.18;;;4.68;;
71715;SDS011;59568;52.128;5.434;2023-04-08T15:05:00;7.55;;;4.38;;
71715;SDS011;59568;52.128;5.434;2023-04-08T15:07:26;6.93;;;4.78;;
71715;SDS011;59568;52.128;5.434;2023-04-08T15:09:53;6.47;;;4.20;;
71715;SDS011;59568;52.128;5.434;2023-04-08T15:12:22;8.57;;;4.73;;